sensor_id;sensor_type;location;lat;lon;timestamp;P1;durP1;ratioP1;P2;durP2;ratioP2
57341;SDS011;43175;51.002;18.316;2023-06-24T00:00:24;59.90;;;30.40;;
57341;SDS011;43175;51.002;18.316;2023-06-24T00:02:50;54.90;;;30.40;;
57341;SDS011;43175;51.002;18.316;2023-06-24T00:05:19;54.60;;;30.10;;
57341;SDS011;43175;51.002;18.316;2023-06-24T00:07:44;53.00;;;30.70;;
57341;SDS011;43175;51.002;18.316;2023-06-24T00:10:11;55.00;;;31.30;;
57341;SDS011;43175;51.002;18.316;2023-06-24T00:12:37;62.20;;;29.90;;
57341;SDS011;43175;51.002;18.316;2023-06-24T00:15:05;55.80;;;29.70;;
57341;SDS011;43175;51.002;18.316;2023-06-24T00:17:31;53.40;;;28.70;;
57341;SDS011;43175;51.002;18.316;2023-06-24T00:19:57;56.20;;;30.20;;
57341;SDS011;43175;51.002;18.316;2023-06-24T00:22:22;51.80;;;29.20;;
57341;SDS011;43175;51.002;18.316;2023-06-24T00:24:48;57.90;;;28.60;;
57341;SDS011;43175;51.002;18.316;2023-06-24T00:27:14;61.20;;;29.50;;
57341;SDS011;43175;51.002;18.316;2023-06-24T00:29:40;62.50;;;29.50;;
57341;SDS011;43175;51.002;18.316;2023-06-24T00:32:05;56.10;;;29.10;;
57341;SDS011;43175;51.002;18.316;2023-06-24T00:34:32;53.20;;;29.70;;
57341;SDS011;43175;51.002;18.316;2023-06-24T00:36:57;53.30;;;28.30;;
57341;SDS011;43175;51.002;18.316;2023-06-24T00:39:22;49.60;;;29.00;;
57341;SDS011;43175;51.002;18.316;2023-06-24T00:41:49;61.70;;;29.00;;
57341;SDS011;43175;51.002;18.316;2023-06-24T00:44:14;55.00;;;28.90;;
57341;SDS011;43175;51.002;18.316;2023-06-24T00:46:40;52.00;;;29.20;;
57341;SDS011;43175;51.002;18.316;2023-06-24T00:49:06;53.90;;;28.40;;
57341;SDS011;43175;51.002;18.316;2023-06-24T00:51:31;48.80;;;28.30;;
57341;SDS011;43175;51.002;18.316;2023-06-24T00:53:58;53.00;;;27.80;;
57341;SDS011;43175;51.002;18.316;2023-06-24T00:56:26;50.80;;;27.40;;
57341;SDS011;43175;51.002;18.316;2023-06-24T00:58:54;52.10;;;27.80;;
57341;SDS011;43175;51.002;18.316;2023-06-24T01:01:22;47.20;;;26.30;;
57341;SDS011;43175;51.002;18.316;2023-06-24T01:03:49;54.80;;;27.00;;
57341;SDS011;43175;51.002;18.316;2023-06-24T01:06:15;43.40;;;26.00;;
57341;SDS011;43175;51.002;18.316;2023-06-24T01:08:40;45.00;;;26.00;;
57341;SDS011;43175;51.002;18.316;2023-06-24T01:11:06;45.70;;;25.90;;
57341;SDS011;43175;51.002;18.316;2023-06-24T01:13:32;45.00;;;26.20;;
57341;SDS011;43175;51.002;18.316;2023-06-24T01:15:58;46.00;;;25.90;;
57341;SDS011;43175;51.002;18.316;2023-06-24T01:26:32;45.20;;;24.20;;
57341;SDS011;43175;51.002;18.316;2023-06-24T01:29:20;45.00;;;24.50;;
57341;SDS011;43175;51.002;18.316;2023-06-24T01:34:34;43.60;;;24.50;;
57341;SDS011;43175;51.002;18.316;2023-06-24T01:39:38;42.30;;;24.50;;
57341;SDS011;43175;51.002;18.316;2023-06-24T01:42:11;42.40;;;24.50;;
57341;SDS011;43175;51.002;18.316;2023-06-24T01:44:40;41.50;;;24.00;;
57341;SDS011;43175;51.002;18.316;2023-06-24T01:47:07;42.90;;;25.00;;
57341;SDS011;43175;51.002;18.316;2023-06-24T01:49:33;42.50;;;23.60;;
57341;SDS011;43175;51.002;18.316;2023-06-24T01:52:03;45.80;;;24.70;;
57341;SDS011;43175;51.002;18.316;2023-06-24T01:54:30;40.30;;;23.40;;
57341;SDS011;43175;51.002;18.316;2023-06-24T01:56:56;41.20;;;23.50;;
57341;SDS011;43175;51.002;18.316;2023-06-24T01:59:23;42.30;;;23.30;;
57341;SDS011;43175;51.002;18.316;2023-06-24T02:01:50;47.50;;;23.10;;
57341;SDS011;43175;51.002;18.316;2023-06-24T02:04:16;38.40;;;22.90;;
57341;SDS011;43175;51.002;18.316;2023-06-24T02:06:42;37.70;;;22.10;;
57341;SDS011;43175;51.002;18.316;2023-06-24T02:09:09;39.20;;;22.20;;
57341;SDS011;43175;51.002;18.316;2023-06-24T02:11:35;39.00;;;21.00;;
57341;SDS011;43175;51.002;18.316;2023-06-24T02:14:01;39.60;;;21.80;;
57341;SDS011;43175;51.002;18.316;2023-06-24T02:16:28;33.00;;;20.80;;
57341;SDS011;43175;51.002;18.316;2023-06-24T02:18:54;33.70;;;19.80;;
57341;SDS011;43175;51.002;18.316;2023-06-24T02:21:21;39.00;;;20.10;;
57341;SDS011;43175;51.002;18.316;2023-06-24T02:23:47;36.80;;;20.10;;
57341;SDS011;43175;51.002;18.316;2023-06-24T02:26:13;34.60;;;19.10;;
57341;SDS011;43175;51.002;18.316;2023-06-24T02:28:40;30.30;;;19.10;;
57341;SDS011;43175;51.002;18.316;2023-06-24T02:31:06;35.10;;;19.40;;
57341;SDS011;43175;51.002;18.316;2023-06-24T02:33:33;31.40;;;19.20;;
57341;SDS011;43175;51.002;18.316;2023-06-24T02:35:59;31.60;;;17.50;;
57341;SDS011;43175;51.002;18.316;2023-06-24T02:38:24;29.20;;;18.10;;
57341;SDS011;43175;51.002;18.316;2023-06-24T02:40:50;35.80;;;19.00;;
57341;SDS011;43175;51.002;18.316;2023-06-24T02:43:16;29.70;;;18.70;;
57341;SDS011;43175;51.002;18.316;2023-06-24T02:45:42;28.60;;;18.10;;
57341;SDS011;43175;51.002;18.316;2023-06-24T02:48:08;31.00;;;17.60;;
57341;SDS011;43175;51.002;18.316;2023-06-24T02:50:35;29.70;;;17.70;;
57341;SDS011;43175;51.002;18.316;2023-06-24T02:53:02;31.50;;;17.90;;
57341;SDS011;43175;51.002;18.316;2023-06-24T02:55:28;31.70;;;17.10;;
57341;SDS011;43175;51.002;18.316;2023-06-24T02:57:54;29.70;;;17.50;;
57341;SDS011;43175;51.002;18.316;2023-06-24T03:00:20;32.80;;;17.30;;
57341;SDS011;43175;51.002;18.316;2023-06-24T03:02:46;31.90;;;17.50;;
57341;SDS011;43175;51.002;18.316;2023-06-24T03:05:11;37.30;;;17.60;;
57341;SDS011;43175;51.002;18.316;2023-06-24T03:07:37;35.00;;;18.70;;
57341;SDS011;43175;51.002;18.316;2023-06-24T03:12:49;34.10;;;18.50;;
57341;SDS011;43175;51.002;18.316;2023-06-24T03:15:14;31.30;;;19.30;;
57341;SDS011;43175;51.002;18.316;2023-06-24T03:17:40;32.60;;;18.80;;
57341;SDS011;43175;51.002;18.316;2023-06-24T03:20:05;32.60;;;19.50;;
57341;SDS011;43175;51.002;18.316;2023-06-24T03:22:32;32.20;;;18.90;;
57341;SDS011;43175;51.002;18.316;2023-06-24T03:24:58;32.40;;;19.80;;
57341;SDS011;43175;51.002;18.316;2023-06-24T03:27:24;32.90;;;19.20;;
57341;SDS011;43175;51.002;18.316;2023-06-24T03:29:49;33.60;;;18.70;;
57341;SDS011;43175;51.002;18.316;2023-06-24T03:32:15;34.50;;;19.00;;
57341;SDS011;43175;51.002;18.316;2023-06-24T03:34:41;30.00;;;19.50;;
57341;SDS011;43175;51.002;18.316;2023-06-24T03:37:06;40.70;;;19.60;;
57341;SDS011;43175;51.002;18.316;2023-06-24T03:39:32;35.10;;;20.60;;
57341;SDS011;43175;51.002;18.316;2023-06-24T03:41:58;34.50;;;20.30;;
57341;SDS011;43175;51.002;18.316;2023-06-24T03:44:23;37.00;;;20.20;;
57341;SDS011;43175;51.002;18.316;2023-06-24T03:46:49;36.80;;;20.80;;
57341;SDS011;43175;51.002;18.316;2023-06-24T03:49:14;35.10;;;21.30;;
57341;SDS011;43175;51.002;18.316;2023-06-24T03:51:39;40.60;;;22.30;;
57341;SDS011;43175;51.002;18.316;2023-06-24T03:54:05;36.70;;;22.90;;
57341;SDS011;43175;51.002;18.316;2023-06-24T03:56:31;36.80;;;23.10;;
57341;SDS011;43175;51.002;18.316;2023-06-24T03:58:56;38.10;;;24.40;;
57341;SDS011;43175;51.002;18.316;2023-06-24T04:01:22;38.80;;;24.20;;
57341;SDS011;43175;51.002;18.316;2023-06-24T04:03:47;36.30;;;23.60;;
57341;SDS011;43175;51.002;18.316;2023-06-24T04:06:13;37.20;;;23.50;;
57341;SDS011;43175;51.002;18.316;2023-06-24T04:08:38;38.20;;;23.60;;
57341;SDS011;43175;51.002;18.316;2023-06-24T04:11:04;39.70;;;23.90;;
57341;SDS011;43175;51.002;18.316;2023-06-24T04:13:32;41.20;;;24.60;;
57341;SDS011;43175;51.002;18.316;2023-06-24T04:15:58;40.30;;;24.60;;
57341;SDS011;43175;51.002;18.316;2023-06-24T04:18:23;37.60;;;25.00;;
57341;SDS011;43175;51.002;18.316;2023-06-24T04:20:49;36.20;;;23.70;;
57341;SDS011;43175;51.002;18.316;2023-06-24T04:23:15;35.30;;;23.00;;
57341;SDS011;43175;51.002;18.316;2023-06-24T04:25:40;38.70;;;24.50;;
57341;SDS011;43175;51.002;18.316;2023-06-24T04:28:07;37.10;;;24.30;;
57341;SDS011;43175;51.002;18.316;2023-06-24T04:30:33;35.20;;;23.00;;
57341;SDS011;43175;51.002;18.316;2023-06-24T04:33:00;34.00;;;22.90;;
57341;SDS011;43175;51.002;18.316;2023-06-24T04:35:26;32.10;;;21.80;;
57341;SDS011;43175;51.002;18.316;2023-06-24T04:37:52;33.10;;;21.40;;
57341;SDS011;43175;51.002;18.316;2023-06-24T04:40:17;31.60;;;21.20;;
57341;SDS011;43175;51.002;18.316;2023-06-24T04:42:44;35.30;;;21.20;;
57341;SDS011;43175;51.002;18.316;2023-06-24T04:45:10;32.80;;;22.20;;
57341;SDS011;43175;51.002;18.316;2023-06-24T04:47:35;30.80;;;21.00;;
57341;SDS011;43175;51.002;18.316;2023-06-24T04:50:01;30.10;;;21.10;;
57341;SDS011;43175;51.002;18.316;2023-06-24T04:52:27;32.20;;;21.20;;
57341;SDS011;43175;51.002;18.316;2023-06-24T04:54:53;30.00;;;19.60;;
57341;SDS011;43175;51.002;18.316;2023-06-24T04:57:28;24.90;;;17.30;;
57341;SDS011;43175;51.002;18.316;2023-06-24T04:59:54;22.40;;;15.20;;
57341;SDS011;43175;51.002;18.316;2023-06-24T05:02:20;24.60;;;14.80;;
57341;SDS011;43175;51.002;18.316;2023-06-24T05:04:45;23.50;;;14.60;;
57341;SDS011;43175;51.002;18.316;2023-06-24T05:07:11;21.40;;;14.20;;
57341;SDS011;43175;51.002;18.316;2023-06-24T05:09:37;20.70;;;13.60;;
57341;SDS011;43175;51.002;18.316;2023-06-24T05:12:06;23.50;;;14.20;;
57341;SDS011;43175;51.002;18.316;2023-06-24T05:14:34;21.30;;;13.40;;
57341;SDS011;43175;51.002;18.316;2023-06-24T05:17:00;22.80;;;13.30;;
57341;SDS011;43175;51.002;18.316;2023-06-24T05:19:26;22.40;;;14.50;;
57341;SDS011;43175;51.002;18.316;2023-06-24T05:21:51;21.80;;;13.50;;
57341;SDS011;43175;51.002;18.316;2023-06-24T05:24:17;20.60;;;12.80;;
57341;SDS011;43175;51.002;18.316;2023-06-24T05:26:44;21.90;;;12.50;;
57341;SDS011;43175;51.002;18.316;2023-06-24T05:29:10;22.00;;;13.00;;
57341;SDS011;43175;51.002;18.316;2023-06-24T05:31:37;21.50;;;13.00;;
57341;SDS011;43175;51.002;18.316;2023-06-24T05:34:03;21.80;;;13.00;;
57341;SDS011;43175;51.002;18.316;2023-06-24T05:36:28;25.30;;;13.80;;
57341;SDS011;43175;51.002;18.316;2023-06-24T05:38:53;22.00;;;13.90;;
57341;SDS011;43175;51.002;18.316;2023-06-24T05:41:19;21.60;;;13.80;;
57341;SDS011;43175;51.002;18.316;2023-06-24T05:43:45;22.40;;;14.30;;
57341;SDS011;43175;51.002;18.316;2023-06-24T05:46:10;23.40;;;14.10;;
57341;SDS011;43175;51.002;18.316;2023-06-24T05:48:36;22.90;;;13.70;;
57341;SDS011;43175;51.002;18.316;2023-06-24T05:51:01;21.20;;;13.80;;
57341;SDS011;43175;51.002;18.316;2023-06-24T05:53:26;21.80;;;13.30;;
57341;SDS011;43175;51.002;18.316;2023-06-24T05:55:52;22.80;;;13.20;;
57341;SDS011;43175;51.002;18.316;2023-06-24T05:58:17;22.40;;;13.30;;
57341;SDS011;43175;51.002;18.316;2023-06-24T06:00:43;23.00;;;13.80;;
57341;SDS011;43175;51.002;18.316;2023-06-24T06:03:08;20.70;;;12.80;;
57341;SDS011;43175;51.002;18.316;2023-06-24T06:05:34;21.20;;;13.00;;
57341;SDS011;43175;51.002;18.316;2023-06-24T06:08:00;21.90;;;13.50;;
57341;SDS011;43175;51.002;18.316;2023-06-24T06:10:26;25.40;;;13.10;;
57341;SDS011;43175;51.002;18.316;2023-06-24T06:12:51;26.80;;;12.90;;
57341;SDS011;43175;51.002;18.316;2023-06-24T06:15:18;21.50;;;11.80;;
57341;SDS011;43175;51.002;18.316;2023-06-24T06:17:45;21.30;;;12.90;;
57341;SDS011;43175;51.002;18.316;2023-06-24T06:20:11;21.50;;;13.10;;
57341;SDS011;43175;51.002;18.316;2023-06-24T06:22:36;22.10;;;12.40;;
57341;SDS011;43175;51.002;18.316;2023-06-24T06:25:04;20.90;;;12.50;;
57341;SDS011;43175;51.002;18.316;2023-06-24T06:27:30;19.00;;;12.30;;
57341;SDS011;43175;51.002;18.316;2023-06-24T06:29:56;22.40;;;12.60;;
57341;SDS011;43175;51.002;18.316;2023-06-24T06:32:21;23.20;;;13.10;;
57341;SDS011;43175;51.002;18.316;2023-06-24T06:34:46;23.10;;;13.70;;
57341;SDS011;43175;51.002;18.316;2023-06-24T06:37:12;22.10;;;12.80;;
57341;SDS011;43175;51.002;18.316;2023-06-24T06:39:37;24.10;;;13.60;;
57341;SDS011;43175;51.002;18.316;2023-06-24T06:42:03;22.70;;;13.10;;
57341;SDS011;43175;51.002;18.316;2023-06-24T06:44:28;27.10;;;13.30;;
57341;SDS011;43175;51.002;18.316;2023-06-24T06:46:54;22.80;;;13.10;;
57341;SDS011;43175;51.002;18.316;2023-06-24T06:49:19;22.80;;;13.10;;
57341;SDS011;43175;51.002;18.316;2023-06-24T06:51:45;21.00;;;12.80;;
57341;SDS011;43175;51.002;18.316;2023-06-24T06:54:10;23.60;;;13.70;;
57341;SDS011;43175;51.002;18.316;2023-06-24T06:56:36;23.70;;;13.70;;
57341;SDS011;43175;51.002;18.316;2023-06-24T06:59:01;27.70;;;14.50;;
57341;SDS011;43175;51.002;18.316;2023-06-24T07:01:26;24.80;;;14.10;;
57341;SDS011;43175;51.002;18.316;2023-06-24T07:03:52;25.80;;;13.60;;
57341;SDS011;43175;51.002;18.316;2023-06-24T07:06:17;25.20;;;14.10;;
57341;SDS011;43175;51.002;18.316;2023-06-24T07:08:44;23.80;;;13.60;;
57341;SDS011;43175;51.002;18.316;2023-06-24T07:11:10;21.00;;;13.00;;
57341;SDS011;43175;51.002;18.316;2023-06-24T07:13:35;22.90;;;13.00;;
57341;SDS011;43175;51.002;18.316;2023-06-24T07:16:01;21.70;;;12.30;;
57341;SDS011;43175;51.002;18.316;2023-06-24T07:18:27;20.50;;;12.00;;
57341;SDS011;43175;51.002;18.316;2023-06-24T07:20:55;23.40;;;11.80;;
57341;SDS011;43175;51.002;18.316;2023-06-24T07:23:21;20.70;;;11.50;;
57341;SDS011;43175;51.002;18.316;2023-06-24T07:25:47;18.80;;;10.90;;
57341;SDS011;43175;51.002;18.316;2023-06-24T07:28:13;20.10;;;11.10;;
57341;SDS011;43175;51.002;18.316;2023-06-24T07:30:40;20.10;;;11.10;;
57341;SDS011;43175;51.002;18.316;2023-06-24T07:33:07;19.30;;;10.40;;
57341;SDS011;43175;51.002;18.316;2023-06-24T07:35:33;20.60;;;11.60;;
57341;SDS011;43175;51.002;18.316;2023-06-24T07:37:58;22.30;;;12.40;;
57341;SDS011;43175;51.002;18.316;2023-06-24T07:40:25;20.10;;;11.50;;
57341;SDS011;43175;51.002;18.316;2023-06-24T07:42:50;20.00;;;12.40;;
57341;SDS011;43175;51.002;18.316;2023-06-24T07:45:15;18.40;;;11.30;;
57341;SDS011;43175;51.002;18.316;2023-06-24T07:47:41;21.60;;;12.00;;
57341;SDS011;43175;51.002;18.316;2023-06-24T07:50:07;20.00;;;12.60;;
57341;SDS011;43175;51.002;18.316;2023-06-24T07:52:34;19.50;;;12.10;;
57341;SDS011;43175;51.002;18.316;2023-06-24T07:54:59;20.90;;;11.90;;
57341;SDS011;43175;51.002;18.316;2023-06-24T07:57:26;19.90;;;11.60;;
57341;SDS011;43175;51.002;18.316;2023-06-24T07:59:52;18.90;;;10.70;;
57341;SDS011;43175;51.002;18.316;2023-06-24T08:02:19;18.60;;;10.00;;
57341;SDS011;43175;51.002;18.316;2023-06-24T08:04:45;17.80;;;10.00;;
57341;SDS011;43175;51.002;18.316;2023-06-24T08:07:11;17.10;;;9.70;;
57341;SDS011;43175;51.002;18.316;2023-06-24T08:09:36;16.30;;;9.50;;
57341;SDS011;43175;51.002;18.316;2023-06-24T08:12:02;16.10;;;9.60;;
57341;SDS011;43175;51.002;18.316;2023-06-24T08:14:28;16.60;;;8.90;;
57341;SDS011;43175;51.002;18.316;2023-06-24T08:16:53;13.70;;;7.90;;
57341;SDS011;43175;51.002;18.316;2023-06-24T08:19:19;17.90;;;8.10;;
57341;SDS011;43175;51.002;18.316;2023-06-24T08:21:44;15.80;;;9.00;;
57341;SDS011;43175;51.002;18.316;2023-06-24T08:24:10;15.60;;;8.80;;
57341;SDS011;43175;51.002;18.316;2023-06-24T08:26:35;19.10;;;9.20;;
57341;SDS011;43175;51.002;18.316;2023-06-24T08:29:01;17.60;;;9.10;;
57341;SDS011;43175;51.002;18.316;2023-06-24T08:31:27;15.10;;;7.90;;
57341;SDS011;43175;51.002;18.316;2023-06-24T08:33:52;16.90;;;8.20;;
57341;SDS011;43175;51.002;18.316;2023-06-24T08:36:21;14.60;;;7.70;;
57341;SDS011;43175;51.002;18.316;2023-06-24T08:38:48;14.30;;;7.70;;
57341;SDS011;43175;51.002;18.316;2023-06-24T08:41:14;14.40;;;8.10;;
57341;SDS011;43175;51.002;18.316;2023-06-24T08:43:39;14.60;;;7.90;;
57341;SDS011;43175;51.002;18.316;2023-06-24T08:46:05;16.60;;;8.70;;
57341;SDS011;43175;51.002;18.316;2023-06-24T08:48:31;16.90;;;8.40;;
57341;SDS011;43175;51.002;18.316;2023-06-24T08:50:58;16.20;;;8.70;;
57341;SDS011;43175;51.002;18.316;2023-06-24T08:53:26;14.90;;;8.50;;
57341;SDS011;43175;51.002;18.316;2023-06-24T08:55:52;17.40;;;8.60;;
57341;SDS011;43175;51.002;18.316;2023-06-24T08:58:19;19.70;;;8.90;;
57341;SDS011;43175;51.002;18.316;2023-06-24T09:00:44;15.70;;;8.10;;
57341;SDS011;43175;51.002;18.316;2023-06-24T09:03:10;15.60;;;7.90;;
57341;SDS011;43175;51.002;18.316;2023-06-24T09:05:36;13.80;;;7.70;;
57341;SDS011;43175;51.002;18.316;2023-06-24T09:08:01;15.50;;;7.50;;
57341;SDS011;43175;51.002;18.316;2023-06-24T09:10:34;16.10;;;7.90;;
57341;SDS011;43175;51.002;18.316;2023-06-24T09:13:01;13.80;;;7.50;;
57341;SDS011;43175;51.002;18.316;2023-06-24T09:15:37;15.80;;;7.40;;
57341;SDS011;43175;51.002;18.316;2023-06-24T09:18:03;16.10;;;8.30;;
57341;SDS011;43175;51.002;18.316;2023-06-24T09:20:29;14.30;;;7.50;;
57341;SDS011;43175;51.002;18.316;2023-06-24T09:23:00;15.60;;;7.30;;
57341;SDS011;43175;51.002;18.316;2023-06-24T09:25:26;12.30;;;6.60;;
57341;SDS011;43175;51.002;18.316;2023-06-24T09:27:52;13.80;;;7.30;;
57341;SDS011;43175;51.002;18.316;2023-06-24T09:30:23;13.80;;;7.40;;
57341;SDS011;43175;51.002;18.316;2023-06-24T09:32:50;14.00;;;7.40;;
57341;SDS011;43175;51.002;18.316;2023-06-24T09:35:20;15.70;;;8.20;;
57341;SDS011;43175;51.002;18.316;2023-06-24T09:37:52;15.90;;;7.30;;
57341;SDS011;43175;51.002;18.316;2023-06-24T09:40:18;15.40;;;8.00;;
57341;SDS011;43175;51.002;18.316;2023-06-24T09:42:48;15.30;;;8.40;;
57341;SDS011;43175;51.002;18.316;2023-06-24T09:45:18;15.90;;;8.00;;
57341;SDS011;43175;51.002;18.316;2023-06-24T09:47:45;17.90;;;8.20;;
57341;SDS011;43175;51.002;18.316;2023-06-24T09:50:10;16.10;;;8.20;;
57341;SDS011;43175;51.002;18.316;2023-06-24T09:52:36;14.50;;;8.10;;
57341;SDS011;43175;51.002;18.316;2023-06-24T09:55:02;14.80;;;7.90;;
57341;SDS011;43175;51.002;18.316;2023-06-24T09:57:28;16.20;;;9.00;;
57341;SDS011;43175;51.002;18.316;2023-06-24T09:59:54;17.40;;;8.80;;
57341;SDS011;43175;51.002;18.316;2023-06-24T10:02:20;17.10;;;8.60;;
57341;SDS011;43175;51.002;18.316;2023-06-24T10:04:46;15.20;;;8.30;;
57341;SDS011;43175;51.002;18.316;2023-06-24T10:07:12;15.40;;;8.50;;
57341;SDS011;43175;51.002;18.316;2023-06-24T10:09:39;15.30;;;9.10;;
57341;SDS011;43175;51.002;18.316;2023-06-24T10:12:05;16.00;;;8.70;;
57341;SDS011;43175;51.002;18.316;2023-06-24T10:14:31;16.80;;;9.10;;
57341;SDS011;43175;51.002;18.316;2023-06-24T10:17:01;17.10;;;9.50;;
57341;SDS011;43175;51.002;18.316;2023-06-24T10:19:28;16.50;;;9.40;;
57341;SDS011;43175;51.002;18.316;2023-06-24T10:21:54;16.40;;;9.10;;
57341;SDS011;43175;51.002;18.316;2023-06-24T10:24:29;14.20;;;8.70;;
57341;SDS011;43175;51.002;18.316;2023-06-24T10:27:00;16.60;;;9.00;;
57341;SDS011;43175;51.002;18.316;2023-06-24T10:29:30;16.90;;;8.80;;
57341;SDS011;43175;51.002;18.316;2023-06-24T10:32:01;15.00;;;8.50;;
57341;SDS011;43175;51.002;18.316;2023-06-24T10:34:29;14.40;;;8.20;;
57341;SDS011;43175;51.002;18.316;2023-06-24T10:39:52;18.10;;;7.50;;
57341;SDS011;43175;51.002;18.316;2023-06-24T10:42:28;13.40;;;5.80;;
57341;SDS011;43175;51.002;18.316;2023-06-24T10:47:37;10.70;;;5.10;;
57341;SDS011;43175;51.002;18.316;2023-06-24T10:50:07;11.20;;;5.00;;
57341;SDS011;43175;51.002;18.316;2023-06-24T10:52:38;12.00;;;5.70;;
57341;SDS011;43175;51.002;18.316;2023-06-24T10:55:04;11.80;;;6.00;;
57341;SDS011;43175;51.002;18.316;2023-06-24T10:57:32;13.90;;;5.70;;
57341;SDS011;43175;51.002;18.316;2023-06-24T10:59:58;11.20;;;5.70;;
57341;SDS011;43175;51.002;18.316;2023-06-24T11:02:25;12.80;;;5.90;;
57341;SDS011;43175;51.002;18.316;2023-06-24T11:07:25;12.50;;;6.40;;
57341;SDS011;43175;51.002;18.316;2023-06-24T11:09:53;14.60;;;6.80;;
57341;SDS011;43175;51.002;18.316;2023-06-24T11:12:19;13.40;;;7.20;;
57341;SDS011;43175;51.002;18.316;2023-06-24T11:14:48;13.30;;;7.20;;
57341;SDS011;43175;51.002;18.316;2023-06-24T11:17:14;14.50;;;7.20;;
57341;SDS011;43175;51.002;18.316;2023-06-24T11:19:39;13.30;;;7.40;;
57341;SDS011;43175;51.002;18.316;2023-06-24T11:22:06;14.10;;;7.70;;
57341;SDS011;43175;51.002;18.316;2023-06-24T11:24:32;14.50;;;8.30;;
57341;SDS011;43175;51.002;18.316;2023-06-24T11:26:58;15.80;;;7.50;;
57341;SDS011;43175;51.002;18.316;2023-06-24T11:29:24;15.20;;;8.40;;
57341;SDS011;43175;51.002;18.316;2023-06-24T11:31:53;17.70;;;8.70;;
57341;SDS011;43175;51.002;18.316;2023-06-24T11:34:19;13.10;;;8.10;;
57341;SDS011;43175;51.002;18.316;2023-06-24T11:36:44;17.40;;;8.80;;
57341;SDS011;43175;51.002;18.316;2023-06-24T11:39:23;15.70;;;8.90;;
57341;SDS011;43175;51.002;18.316;2023-06-24T11:41:50;14.70;;;8.40;;
57341;SDS011;43175;51.002;18.316;2023-06-24T11:44:17;14.90;;;8.70;;
57341;SDS011;43175;51.002;18.316;2023-06-24T11:46:46;15.50;;;8.00;;
57341;SDS011;43175;51.002;18.316;2023-06-24T11:49:12;18.10;;;9.10;;
57341;SDS011;43175;51.002;18.316;2023-06-24T11:51:45;15.60;;;8.70;;
57341;SDS011;43175;51.002;18.316;2023-06-24T11:54:19;16.00;;;9.00;;
57341;SDS011;43175;51.002;18.316;2023-06-24T11:56:49;15.40;;;9.00;;
57341;SDS011;43175;51.002;18.316;2023-06-24T11:59:21;15.00;;;9.10;;
57341;SDS011;43175;51.002;18.316;2023-06-24T12:01:53;17.20;;;9.70;;
57341;SDS011;43175;51.002;18.316;2023-06-24T12:04:20;17.20;;;8.60;;
57341;SDS011;43175;51.002;18.316;2023-06-24T12:06:45;20.10;;;9.00;;
57341;SDS011;43175;51.002;18.316;2023-06-24T12:09:11;17.10;;;8.50;;
57341;SDS011;43175;51.002;18.316;2023-06-24T12:11:37;17.30;;;9.10;;
57341;SDS011;43175;51.002;18.316;2023-06-24T12:14:03;17.30;;;9.20;;
57341;SDS011;43175;51.002;18.316;2023-06-24T12:16:31;16.90;;;9.10;;
57341;SDS011;43175;51.002;18.316;2023-06-24T12:18:57;17.70;;;8.80;;
57341;SDS011;43175;51.002;18.316;2023-06-24T12:21:22;15.30;;;7.30;;
57341;SDS011;43175;51.002;18.316;2023-06-24T12:23:48;16.40;;;7.80;;
57341;SDS011;43175;51.002;18.316;2023-06-24T12:26:13;17.30;;;7.40;;
57341;SDS011;43175;51.002;18.316;2023-06-24T12:28:39;14.00;;;7.80;;
57341;SDS011;43175;51.002;18.316;2023-06-24T12:31:04;14.20;;;7.10;;
57341;SDS011;43175;51.002;18.316;2023-06-24T12:33:30;13.80;;;7.70;;
57341;SDS011;43175;51.002;18.316;2023-06-24T12:35:56;14.50;;;8.10;;
57341;SDS011;43175;51.002;18.316;2023-06-24T12:38:22;14.60;;;7.90;;
57341;SDS011;43175;51.002;18.316;2023-06-24T12:40:47;14.80;;;7.70;;
57341;SDS011;43175;51.002;18.316;2023-06-24T12:43:13;14.60;;;7.80;;
57341;SDS011;43175;51.002;18.316;2023-06-24T12:45:40;14.10;;;7.70;;
57341;SDS011;43175;51.002;18.316;2023-06-24T12:48:08;17.10;;;7.70;;
57341;SDS011;43175;51.002;18.316;2023-06-24T12:50:35;14.50;;;7.80;;
57341;SDS011;43175;51.002;18.316;2023-06-24T12:53:00;15.00;;;7.60;;
57341;SDS011;43175;51.002;18.316;2023-06-24T12:55:27;13.80;;;8.10;;
57341;SDS011;43175;51.002;18.316;2023-06-24T12:57:52;14.20;;;8.30;;
57341;SDS011;43175;51.002;18.316;2023-06-24T13:00:19;15.10;;;8.00;;
57341;SDS011;43175;51.002;18.316;2023-06-24T13:02:45;15.10;;;8.30;;
57341;SDS011;43175;51.002;18.316;2023-06-24T13:05:11;15.30;;;8.20;;
57341;SDS011;43175;51.002;18.316;2023-06-24T13:07:36;14.50;;;7.70;;
57341;SDS011;43175;51.002;18.316;2023-06-24T13:10:02;13.40;;;7.40;;
57341;SDS011;43175;51.002;18.316;2023-06-24T13:12:31;14.80;;;8.30;;
57341;SDS011;43175;51.002;18.316;2023-06-24T13:14:57;13.90;;;7.70;;
57341;SDS011;43175;51.002;18.316;2023-06-24T13:17:23;15.20;;;7.80;;
57341;SDS011;43175;51.002;18.316;2023-06-24T13:19:49;16.00;;;8.40;;
57341;SDS011;43175;51.002;18.316;2023-06-24T13:22:16;14.30;;;7.80;;
57341;SDS011;43175;51.002;18.316;2023-06-24T13:24:42;14.90;;;7.80;;
57341;SDS011;43175;51.002;18.316;2023-06-24T13:27:08;14.30;;;8.60;;
57341;SDS011;43175;51.002;18.316;2023-06-24T13:29:34;16.80;;;8.60;;
57341;SDS011;43175;51.002;18.316;2023-06-24T13:31:59;16.30;;;8.90;;
57341;SDS011;43175;51.002;18.316;2023-06-24T13:34:25;15.40;;;8.60;;
57341;SDS011;43175;51.002;18.316;2023-06-24T13:36:50;15.30;;;8.20;;
57341;SDS011;43175;51.002;18.316;2023-06-24T13:39:16;14.30;;;7.90;;
57341;SDS011;43175;51.002;18.316;2023-06-24T13:41:47;15.30;;;8.70;;
57341;SDS011;43175;51.002;18.316;2023-06-24T13:44:13;15.20;;;8.40;;
57341;SDS011;43175;51.002;18.316;2023-06-24T13:46:38;14.60;;;8.50;;
57341;SDS011;43175;51.002;18.316;2023-06-24T13:49:04;15.30;;;8.80;;
57341;SDS011;43175;51.002;18.316;2023-06-24T13:51:30;16.70;;;8.20;;
57341;SDS011;43175;51.002;18.316;2023-06-24T13:53:55;16.30;;;8.70;;
57341;SDS011;43175;51.002;18.316;2023-06-24T13:56:21;15.30;;;8.70;;
57341;SDS011;43175;51.002;18.316;2023-06-24T13:58:51;14.60;;;8.10;;
57341;SDS011;43175;51.002;18.316;2023-06-24T14:01:17;19.40;;;10.90;;
57341;SDS011;43175;51.002;18.316;2023-06-24T14:03:43;14.30;;;8.70;;
57341;SDS011;43175;51.002;18.316;2023-06-24T14:06:09;15.60;;;9.40;;
57341;SDS011;43175;51.002;18.316;2023-06-24T14:08:35;14.30;;;8.90;;
57341;SDS011;43175;51.002;18.316;2023-06-24T14:11:01;14.50;;;8.40;;
57341;SDS011;43175;51.002;18.316;2023-06-24T14:13:27;14.00;;;8.80;;
57341;SDS011;43175;51.002;18.316;2023-06-24T14:15:53;14.90;;;8.80;;
57341;SDS011;43175;51.002;18.316;2023-06-24T14:18:19;15.10;;;8.90;;
57341;SDS011;43175;51.002;18.316;2023-06-24T14:20:44;15.50;;;9.00;;
57341;SDS011;43175;51.002;18.316;2023-06-24T14:23:10;15.20;;;9.00;;
57341;SDS011;43175;51.002;18.316;2023-06-24T14:25:36;14.10;;;8.80;;
57341;SDS011;43175;51.002;18.316;2023-06-24T14:28:06;15.20;;;9.60;;
57341;SDS011;43175;51.002;18.316;2023-06-24T14:30:32;15.00;;;9.10;;
57341;SDS011;43175;51.002;18.316;2023-06-24T14:32:59;16.00;;;10.00;;